sensor_id;sensor_type;location;lat;lon;timestamp;P1;durP1;ratioP1;P2;durP2;ratioP2
36253;SDS011;22291;52.250;21.228;2022-07-26T00:01:36;7.47;;;6.25;;
36253;SDS011;22291;52.250;21.228;2022-07-26T00:04:02;6.85;;;6.20;;
36253;SDS011;22291;52.250;21.228;2022-07-26T00:06:30;11.00;;;7.45;;
36253;SDS011;22291;52.250;21.228;2022-07-26T00:08:58;7.25;;;6.50;;
36253;SDS011;22291;52.250;21.228;2022-07-26T00:11:24;9.53;;;6.78;;
36253;SDS011;22291;52.250;21.228;2022-07-26T00:13:51;9.95;;;6.30;;
36253;SDS011;22291;52.250;21.228;2022-07-26T00:16:18;7.55;;;6.37;;
36253;SDS011;22291;52.250;21.228;2022-07-26T00:18:44;7.28;;;6.42;;
36253;SDS011;22291;52.250;21.228;2022-07-26T00:21:12;8.60;;;7.35;;
36253;SDS011;22291;52.250;21.228;2022-07-26T00:23:38;10.65;;;6.85;;
36253;SDS011;22291;52.250;21.228;2022-07-26T00:26:04;7.90;;;7.10;;
36253;SDS011;22291;52.250;21.228;2022-07-26T00:28:30;9.08;;;7.12;;
36253;SDS011;22291;52.250;21.228;2022-07-26T00:30:56;11.40;;;7.67;;
36253;SDS011;22291;52.250;21.228;2022-07-26T00:33:22;8.60;;;6.37;;
36253;SDS011;22291;52.250;21.228;2022-07-26T00:35:49;9.43;;;7.15;;
36253;SDS011;22291;52.250;21.228;2022-07-26T00:38:15;9.58;;;6.58;;
36253;SDS011;22291;52.250;21.228;2022-07-26T00:40:41;12.18;;;7.33;;
36253;SDS011;22291;52.250;21.228;2022-07-26T00:43:07;8.53;;;6.78;;
36253;SDS011;22291;52.250;21.228;2022-07-26T00:45:33;8.43;;;6.70;;
36253;SDS011;22291;52.250;21.228;2022-07-26T00:48:00;7.78;;;6.87;;
36253;SDS011;22291;52.250;21.228;2022-07-26T00:50:26;7.30;;;6.53;;
36253;SDS011;22291;52.250;21.228;2022-07-26T00:52:52;8.68;;;5.62;;
36253;SDS011;22291;52.250;21.228;2022-07-26T00:55:19;6.92;;;6.25;;
36253;SDS011;22291;52.250;21.228;2022-07-26T00:57:46;9.28;;;6.45;;
36253;SDS011;22291;52.250;21.228;2022-07-26T01:00:14;8.15;;;6.28;;
36253;SDS011;22291;52.250;21.228;2022-07-26T01:02:44;7.40;;;6.10;;
36253;SDS011;22291;52.250;21.228;2022-07-26T01:05:10;9.60;;;6.42;;
36253;SDS011;22291;52.250;21.228;2022-07-26T01:07:37;7.75;;;6.03;;
36253;SDS011;22291;52.250;21.228;2022-07-26T01:10:06;6.42;;;5.83;;
36253;SDS011;22291;52.250;21.228;2022-07-26T01:12:40;6.90;;;6.05;;
36253;SDS011;22291;52.250;21.228;2022-07-26T01:15:08;6.67;;;5.80;;
36253;SDS011;22291;52.250;21.228;2022-07-26T01:17:38;7.60;;;6.40;;
36253;SDS011;22291;52.250;21.228;2022-07-26T01:20:05;8.20;;;5.80;;
36253;SDS011;22291;52.250;21.228;2022-07-26T01:22:34;7.12;;;6.03;;
36253;SDS011;22291;52.250;21.228;2022-07-26T01:25:01;10.98;;;6.40;;
36253;SDS011;22291;52.250;21.228;2022-07-26T01:27:30;7.73;;;5.90;;
36253;SDS011;22291;52.250;21.228;2022-07-26T01:29:56;6.80;;;6.15;;
36253;SDS011;22291;52.250;21.228;2022-07-26T01:32:22;8.10;;;6.30;;
36253;SDS011;22291;52.250;21.228;2022-07-26T01:34:48;8.15;;;6.17;;
36253;SDS011;22291;52.250;21.228;2022-07-26T01:37:15;6.10;;;5.50;;
36253;SDS011;22291;52.250;21.228;2022-07-26T01:39:41;6.47;;;5.72;;
36253;SDS011;22291;52.250;21.228;2022-07-26T01:42:09;8.98;;;5.83;;
36253;SDS011;22291;52.250;21.228;2022-07-26T01:44:36;7.42;;;6.10;;
36253;SDS011;22291;52.250;21.228;2022-07-26T01:47:02;8.95;;;6.17;;
36253;SDS011;22291;52.250;21.228;2022-07-26T01:49:28;7.67;;;5.70;;
36253;SDS011;22291;52.250;21.228;2022-07-26T01:51:54;7.75;;;5.72;;
36253;SDS011;22291;52.250;21.228;2022-07-26T01:54:20;6.17;;;5.50;;
36253;SDS011;22291;52.250;21.228;2022-07-26T01:56:47;10.50;;;5.50;;
36253;SDS011;22291;52.250;21.228;2022-07-26T01:59:13;6.17;;;5.47;;
36253;SDS011;22291;52.250;21.228;2022-07-26T02:01:40;6.30;;;5.50;;
36253;SDS011;22291;52.250;21.228;2022-07-26T02:04:06;9.45;;;5.87;;
36253;SDS011;22291;52.250;21.228;2022-07-26T02:06:35;6.90;;;6.00;;
36253;SDS011;22291;52.250;21.228;2022-07-26T02:09:01;9.20;;;5.53;;
36253;SDS011;22291;52.250;21.228;2022-07-26T02:11:27;6.45;;;5.72;;
36253;SDS011;22291;52.250;21.228;2022-07-26T02:13:53;9.15;;;5.65;;
36253;SDS011;22291;52.250;21.228;2022-07-26T02:16:20;6.72;;;6.12;;
36253;SDS011;22291;52.250;21.228;2022-07-26T02:18:46;7.47;;;6.78;;
36253;SDS011;22291;52.250;21.228;2022-07-26T02:21:12;6.33;;;5.50;;
36253;SDS011;22291;52.250;21.228;2022-07-26T02:23:39;10.95;;;6.20;;
36253;SDS011;22291;52.250;21.228;2022-07-26T02:26:05;7.10;;;6.40;;
36253;SDS011;22291;52.250;21.228;2022-07-26T02:28:31;7.87;;;5.97;;
36253;SDS011;22291;52.250;21.228;2022-07-26T02:30:57;6.22;;;5.62;;
36253;SDS011;22291;52.250;21.228;2022-07-26T02:33:23;6.60;;;5.90;;
36253;SDS011;22291;52.250;21.228;2022-07-26T02:35:49;6.45;;;5.85;;
36253;SDS011;22291;52.250;21.228;2022-07-26T02:38:16;8.40;;;6.08;;
36253;SDS011;22291;52.250;21.228;2022-07-26T02:40:42;7.75;;;5.90;;
36253;SDS011;22291;52.250;21.228;2022-07-26T02:43:09;7.72;;;6.10;;
36253;SDS011;22291;52.250;21.228;2022-07-26T02:45:36;6.55;;;5.95;;
36253;SDS011;22291;52.250;21.228;2022-07-26T02:48:02;9.88;;;5.87;;
36253;SDS011;22291;52.250;21.228;2022-07-26T02:50:31;6.92;;;6.22;;
36253;SDS011;22291;52.250;21.228;2022-07-26T02:52:58;6.97;;;6.05;;
36253;SDS011;22291;52.250;21.228;2022-07-26T02:55:24;8.05;;;6.42;;
36253;SDS011;22291;52.250;21.228;2022-07-26T02:57:52;8.25;;;6.70;;
36253;SDS011;22291;52.250;21.228;2022-07-26T03:00:22;7.30;;;6.60;;
36253;SDS011;22291;52.250;21.228;2022-07-26T03:02:49;7.83;;;6.67;;
36253;SDS011;22291;52.250;21.228;2022-07-26T03:05:16;9.53;;;6.62;;
36253;SDS011;22291;52.250;21.228;2022-07-26T03:07:44;9.33;;;6.80;;
36253;SDS011;22291;52.250;21.228;2022-07-26T03:10:11;11.45;;;6.30;;
36253;SDS011;22291;52.250;21.228;2022-07-26T03:12:37;10.32;;;6.78;;
36253;SDS011;22291;52.250;21.228;2022-07-26T03:15:04;7.30;;;6.53;;
36253;SDS011;22291;52.250;21.228;2022-07-26T03:17:31;9.43;;;6.30;;
36253;SDS011;22291;52.250;21.228;2022-07-26T03:19:57;10.10;;;6.10;;
36253;SDS011;22291;52.250;21.228;2022-07-26T03:22:23;7.97;;;6.30;;
36253;SDS011;22291;52.250;21.228;2022-07-26T03:24:49;7.85;;;7.05;;
36253;SDS011;22291;52.250;21.228;2022-07-26T03:27:16;6.97;;;6.28;;
36253;SDS011;22291;52.250;21.228;2022-07-26T03:29:43;7.03;;;6.30;;
36253;SDS011;22291;52.250;21.228;2022-07-26T03:32:10;8.80;;;6.90;;
36253;SDS011;22291;52.250;21.228;2022-07-26T03:34:36;6.85;;;6.17;;
36253;SDS011;22291;52.250;21.228;2022-07-26T03:37:03;7.17;;;6.40;;
36253;SDS011;22291;52.250;21.228;2022-07-26T03:39:30;10.48;;;6.30;;
36253;SDS011;22291;52.250;21.228;2022-07-26T03:41:56;8.88;;;6.72;;
36253;SDS011;22291;52.250;21.228;2022-07-26T03:44:22;7.22;;;6.55;;
36253;SDS011;22291;52.250;21.228;2022-07-26T03:46:48;7.60;;;6.85;;
36253;SDS011;22291;52.250;21.228;2022-07-26T03:49:14;8.65;;;6.78;;
36253;SDS011;22291;52.250;21.228;2022-07-26T03:51:40;9.83;;;7.42;;
36253;SDS011;22291;52.250;21.228;2022-07-26T03:54:07;10.53;;;7.67;;
36253;SDS011;22291;52.250;21.228;2022-07-26T03:56:33;7.22;;;6.53;;
36253;SDS011;22291;52.250;21.228;2022-07-26T03:59:00;7.33;;;6.53;;
36253;SDS011;22291;52.250;21.228;2022-07-26T04:01:30;8.48;;;6.75;;
36253;SDS011;22291;52.250;21.228;2022-07-26T04:03:59;7.28;;;6.08;;
36253;SDS011;22291;52.250;21.228;2022-07-26T04:06:26;7.03;;;6.22;;
36253;SDS011;22291;52.250;21.228;2022-07-26T04:08:53;8.40;;;6.65;;
36253;SDS011;22291;52.250;21.228;2022-07-26T04:11:20;7.80;;;7.00;;
36253;SDS011;22291;52.250;21.228;2022-07-26T04:13:46;7.75;;;6.95;;
36253;SDS011;22291;52.250;21.228;2022-07-26T04:16:13;8.63;;;7.53;;
36253;SDS011;22291;52.250;21.228;2022-07-26T04:18:39;8.75;;;6.67;;
36253;SDS011;22291;52.250;21.228;2022-07-26T04:21:06;7.15;;;6.45;;
36253;SDS011;22291;52.250;21.228;2022-07-26T04:23:33;6.50;;;5.90;;
36253;SDS011;22291;52.250;21.228;2022-07-26T04:25:59;8.00;;;6.25;;
36253;SDS011;22291;52.250;21.228;2022-07-26T04:28:25;9.38;;;6.75;;
36253;SDS011;22291;52.250;21.228;2022-07-26T04:30:56;7.05;;;6.33;;
36253;SDS011;22291;52.250;21.228;2022-07-26T04:33:24;12.53;;;5.97;;
36253;SDS011;22291;52.250;21.228;2022-07-26T04:35:51;12.40;;;6.60;;
36253;SDS011;22291;52.250;21.228;2022-07-26T04:38:19;8.48;;;6.42;;
36253;SDS011;22291;52.250;21.228;2022-07-26T04:40:45;8.35;;;6.55;;
36253;SDS011;22291;52.250;21.228;2022-07-26T04:43:11;9.10;;;6.37;;
36253;SDS011;22291;52.250;21.228;2022-07-26T04:45:37;6.65;;;5.80;;
36253;SDS011;22291;52.250;21.228;2022-07-26T04:48:03;9.80;;;6.37;;
36253;SDS011;22291;52.250;21.228;2022-07-26T04:50:31;7.62;;;6.85;;
36253;SDS011;22291;52.250;21.228;2022-07-26T04:52:57;9.80;;;6.50;;
36253;SDS011;22291;52.250;21.228;2022-07-26T04:55:24;6.50;;;5.72;;
36253;SDS011;22291;52.250;21.228;2022-07-26T04:57:50;6.42;;;5.72;;
36253;SDS011;22291;52.250;21.228;2022-07-26T05:00:17;6.55;;;5.85;;
36253;SDS011;22291;52.250;21.228;2022-07-26T05:02:53;6.12;;;5.53;;
36253;SDS011;22291;52.250;21.228;2022-07-26T05:05:19;6.92;;;6.03;;
36253;SDS011;22291;52.250;21.228;2022-07-26T05:07:48;7.85;;;5.90;;
36253;SDS011;22291;52.250;21.228;2022-07-26T05:10:17;7.25;;;5.53;;
36253;SDS011;22291;52.250;21.228;2022-07-26T05:12:44;8.58;;;6.25;;
36253;SDS011;22291;52.250;21.228;2022-07-26T05:15:12;7.03;;;5.37;;
36253;SDS011;22291;52.250;21.228;2022-07-26T05:17:40;10.03;;;5.90;;
36253;SDS011;22291;52.250;21.228;2022-07-26T05:20:09;6.93;;;6.23;;
36253;SDS011;22291;52.250;21.228;2022-07-26T05:22:39;6.97;;;6.30;;
36253;SDS011;22291;52.250;21.228;2022-07-26T05:25:08;9.28;;;6.45;;
36253;SDS011;22291;52.250;21.228;2022-07-26T05:27:34;7.90;;;5.70;;
36253;SDS011;22291;52.250;21.228;2022-07-26T05:30:01;7.75;;;5.50;;
36253;SDS011;22291;52.250;21.228;2022-07-26T05:32:30;8.00;;;5.85;;
36253;SDS011;22291;52.250;21.228;2022-07-26T05:34:56;10.98;;;6.33;;
36253;SDS011;22291;52.250;21.228;2022-07-26T05:37:22;6.35;;;5.58;;
36253;SDS011;22291;52.250;21.228;2022-07-26T05:39:48;6.72;;;5.58;;
36253;SDS011;22291;52.250;21.228;2022-07-26T05:42:14;7.00;;;5.90;;
36253;SDS011;22291;52.250;21.228;2022-07-26T05:44:40;10.15;;;6.28;;
36253;SDS011;22291;52.250;21.228;2022-07-26T05:47:06;7.80;;;5.87;;
36253;SDS011;22291;52.250;21.228;2022-07-26T05:49:33;7.35;;;5.50;;
36253;SDS011;22291;52.250;21.228;2022-07-26T05:51:59;6.33;;;5.42;;
36253;SDS011;22291;52.250;21.228;2022-07-26T05:54:25;8.25;;;5.72;;
36253;SDS011;22291;52.250;21.228;2022-07-26T05:56:51;8.50;;;6.00;;
36253;SDS011;22291;52.250;21.228;2022-07-26T05:59:17;9.13;;;5.85;;
36253;SDS011;22291;52.250;21.228;2022-07-26T06:01:44;6.28;;;5.35;;
36253;SDS011;22291;52.250;21.228;2022-07-26T06:04:10;12.75;;;5.60;;
36253;SDS011;22291;52.250;21.228;2022-07-26T06:06:37;6.17;;;5.05;;
36253;SDS011;22291;52.250;21.228;2022-07-26T06:09:03;8.55;;;5.95;;
36253;SDS011;22291;52.250;21.228;2022-07-26T06:11:30;8.73;;;5.60;;
36253;SDS011;22291;52.250;21.228;2022-07-26T06:13:56;11.53;;;5.37;;
36253;SDS011;22291;52.250;21.228;2022-07-26T06:16:22;8.05;;;5.60;;
36253;SDS011;22291;52.250;21.228;2022-07-26T06:18:48;9.05;;;5.35;;
36253;SDS011;22291;52.250;21.228;2022-07-26T06:21:14;6.25;;;5.00;;
36253;SDS011;22291;52.250;21.228;2022-07-26T06:23:40;11.03;;;8.08;;
36253;SDS011;22291;52.250;21.228;2022-07-26T06:26:06;7.70;;;5.80;;
36253;SDS011;22291;52.250;21.228;2022-07-26T06:28:33;6.65;;;4.95;;
36253;SDS011;22291;52.250;21.228;2022-07-26T06:31:01;6.17;;;4.80;;
36253;SDS011;22291;52.250;21.228;2022-07-26T06:33:27;5.65;;;5.10;;
36253;SDS011;22291;52.250;21.228;2022-07-26T06:35:53;6.47;;;4.80;;
36253;SDS011;22291;52.250;21.228;2022-07-26T06:38:19;6.60;;;4.50;;
36253;SDS011;22291;52.250;21.228;2022-07-26T06:40:46;5.97;;;4.25;;
36253;SDS011;22291;52.250;21.228;2022-07-26T06:43:12;8.25;;;4.15;;
36253;SDS011;22291;52.250;21.228;2022-07-26T06:45:38;6.65;;;4.87;;
36253;SDS011;22291;52.250;21.228;2022-07-26T06:48:05;6.10;;;4.47;;
36253;SDS011;22291;52.250;21.228;2022-07-26T06:50:31;6.53;;;4.40;;
36253;SDS011;22291;52.250;21.228;2022-07-26T06:52:58;9.05;;;5.08;;
36253;SDS011;22291;52.250;21.228;2022-07-26T06:55:24;9.60;;;4.60;;
36253;SDS011;22291;52.250;21.228;2022-07-26T06:57:50;5.62;;;4.20;;
36253;SDS011;22291;52.250;21.228;2022-07-26T07:00:16;6.67;;;4.45;;
36253;SDS011;22291;52.250;21.228;2022-07-26T07:02:44;6.78;;;3.80;;
36253;SDS011;22291;52.250;21.228;2022-07-26T07:05:10;4.87;;;4.15;;
36253;SDS011;22291;52.250;21.228;2022-07-26T07:07:37;6.35;;;4.08;;
36253;SDS011;22291;52.250;21.228;2022-07-26T07:10:05;10.82;;;3.80;;
36253;SDS011;22291;52.250;21.228;2022-07-26T07:12:32;4.13;;;3.80;;
36253;SDS011;22291;52.250;21.228;2022-07-26T07:14:59;8.73;;;3.90;;
36253;SDS011;22291;52.250;21.228;2022-07-26T07:17:25;6.28;;;3.60;;
36253;SDS011;22291;52.250;21.228;2022-07-26T07:19:51;4.75;;;3.67;;
36253;SDS011;22291;52.250;21.228;2022-07-26T07:22:17;6.53;;;3.72;;
36253;SDS011;22291;52.250;21.228;2022-07-26T07:24:43;4.58;;;3.80;;
36253;SDS011;22291;52.250;21.228;2022-07-26T07:27:10;6.55;;;3.62;;
36253;SDS011;22291;52.250;21.228;2022-07-26T07:29:38;3.83;;;3.50;;
36253;SDS011;22291;52.250;21.228;2022-07-26T07:34:31;6.37;;;4.03;;
36253;SDS011;22291;52.250;21.228;2022-07-26T07:36:58;6.05;;;3.42;;
36253;SDS011;22291;52.250;21.228;2022-07-26T07:39:24;3.67;;;3.33;;
36253;SDS011;22291;52.250;21.228;2022-07-26T07:41:50;4.65;;;3.45;;
36253;SDS011;22291;52.250;21.228;2022-07-26T07:44:17;4.47;;;3.52;;
36253;SDS011;22291;52.250;21.228;2022-07-26T07:46:43;4.15;;;3.27;;
36253;SDS011;22291;52.250;21.228;2022-07-26T07:49:09;3.40;;;3.08;;
36253;SDS011;22291;52.250;21.228;2022-07-26T07:51:35;5.28;;;3.20;;
36253;SDS011;22291;52.250;21.228;2022-07-26T07:54:02;3.62;;;3.33;;
36253;SDS011;22291;52.250;21.228;2022-07-26T07:56:30;6.08;;;3.40;;
36253;SDS011;22291;52.250;21.228;2022-07-26T07:58:56;6.25;;;3.40;;
36253;SDS011;22291;52.250;21.228;2022-07-26T08:01:23;4.95;;;3.60;;
36253;SDS011;22291;52.250;21.228;2022-07-26T08:03:49;4.08;;;3.50;;
36253;SDS011;22291;52.250;21.228;2022-07-26T08:06:15;6.40;;;3.30;;
36253;SDS011;22291;52.250;21.228;2022-07-26T08:08:42;4.22;;;3.40;;
36253;SDS011;22291;52.250;21.228;2022-07-26T08:11:08;5.97;;;3.22;;
36253;SDS011;22291;52.250;21.228;2022-07-26T08:13:35;3.45;;;3.15;;
36253;SDS011;22291;52.250;21.228;2022-07-26T08:16:02;4.70;;;3.12;;
36253;SDS011;22291;52.250;21.228;2022-07-26T08:18:29;3.58;;;3.22;;
36253;SDS011;22291;52.250;21.228;2022-07-26T08:20:55;5.97;;;3.50;;
36253;SDS011;22291;52.250;21.228;2022-07-26T08:23:22;3.35;;;3.12;;
36253;SDS011;22291;52.250;21.228;2022-07-26T08:25:48;3.80;;;3.40;;
36253;SDS011;22291;52.250;21.228;2022-07-26T08:28:15;8.13;;;3.65;;
36253;SDS011;22291;52.250;21.228;2022-07-26T08:30:42;3.90;;;3.60;;
36253;SDS011;22291;52.250;21.228;2022-07-26T08:33:08;4.17;;;3.77;;
36253;SDS011;22291;52.250;21.228;2022-07-26T08:35:34;4.20;;;3.80;;
36253;SDS011;22291;52.250;21.228;2022-07-26T08:38:01;6.53;;;3.52;;
36253;SDS011;22291;52.250;21.228;2022-07-26T08:40:27;7.40;;;3.50;;
36253;SDS011;22291;52.250;21.228;2022-07-26T08:42:54;3.37;;;3.15;;
36253;SDS011;22291;52.250;21.228;2022-07-26T08:45:22;3.72;;;3.42;;
36253;SDS011;22291;52.250;21.228;2022-07-26T08:47:50;6.10;;;4.15;;
36253;SDS011;22291;52.250;21.228;2022-07-26T08:50:18;6.40;;;3.58;;
36253;SDS011;22291;52.250;21.228;2022-07-26T08:52:45;6.22;;;3.80;;
36253;SDS011;22291;52.250;21.228;2022-07-26T08:55:15;5.05;;;3.65;;
36253;SDS011;22291;52.250;21.228;2022-07-26T08:57:43;4.33;;;3.50;;
36253;SDS011;22291;52.250;21.228;2022-07-26T09:00:13;4.28;;;3.70;;
36253;SDS011;22291;52.250;21.228;2022-07-26T09:02:48;6.05;;;3.65;;
36253;SDS011;22291;52.250;21.228;2022-07-26T09:05:17;4.85;;;3.70;;
36253;SDS011;22291;52.250;21.228;2022-07-26T09:07:44;6.33;;;3.67;;
36253;SDS011;22291;52.250;21.228;2022-07-26T09:10:12;4.37;;;3.70;;
36253;SDS011;22291;52.250;21.228;2022-07-26T09:12:40;5.15;;;3.50;;
36253;SDS011;22291;52.250;21.228;2022-07-26T09:15:18;3.80;;;3.50;;
36253;SDS011;22291;52.250;21.228;2022-07-26T09:17:48;7.35;;;3.90;;
36253;SDS011;22291;52.250;21.228;2022-07-26T09:20:20;11.68;;;4.58;;
36253;SDS011;22291;52.250;21.228;2022-07-26T09:25:37;5.47;;;3.50;;
36253;SDS011;22291;52.250;21.228;2022-07-26T09:28:23;3.30;;;3.10;;
36253;SDS011;22291;52.250;21.228;2022-07-26T09:30:56;4.45;;;3.52;;
36253;SDS011;22291;52.250;21.228;2022-07-26T09:33:47;4.92;;;3.65;;
36253;SDS011;22291;52.250;21.228;2022-07-26T09:36:16;5.90;;;3.42;;
36253;SDS011;22291;52.250;21.228;2022-07-26T09:38:44;3.92;;;3.62;;
36253;SDS011;22291;52.250;21.228;2022-07-26T09:41:28;5.20;;;3.45;;
36253;SDS011;22291;52.250;21.228;2022-07-26T09:43:59;4.03;;;3.30;;
36253;SDS011;22291;52.250;21.228;2022-07-26T09:46:30;5.28;;;3.50;;
36253;SDS011;22291;52.250;21.228;2022-07-26T09:51:46;3.75;;;3.45;;
36253;SDS011;22291;52.250;21.228;2022-07-26T09:54:33;4.75;;;3.67;;
36253;SDS011;22291;52.250;21.228;2022-07-26T09:57:00;4.22;;;3.83;;
36253;SDS011;22291;52.250;21.228;2022-07-26T09:59:28;6.28;;;3.75;;
36253;SDS011;22291;52.250;21.228;2022-07-26T10:01:56;5.05;;;4.30;;
36253;SDS011;22291;52.250;21.228;2022-07-26T10:04:24;7.87;;;4.10;;
36253;SDS011;22291;52.250;21.228;2022-07-26T10:06:51;9.25;;;4.05;;
36253;SDS011;22291;52.250;21.228;2022-07-26T10:09:19;6.97;;;4.58;;
36253;SDS011;22291;52.250;21.228;2022-07-26T10:20:08;5.25;;;4.33;;
36253;SDS011;22291;52.250;21.228;2022-07-26T10:27:52;4.97;;;4.58;;
36253;SDS011;22291;52.250;21.228;2022-07-26T10:30:27;6.30;;;4.97;;
36253;SDS011;22291;52.250;21.228;2022-07-26T10:32:56;5.97;;;5.05;;
36253;SDS011;22291;52.250;21.228;2022-07-26T10:38:07;5.95;;;4.28;;
36253;SDS011;22291;52.250;21.228;2022-07-26T10:43:28;9.20;;;4.95;;
36253;SDS011;22291;52.250;21.228;2022-07-26T10:49:09;6.58;;;5.37;;
36253;SDS011;22291;52.250;21.228;2022-07-26T10:51:25;9.65;;;5.55;;
36253;SDS011;22291;52.250;21.228;2022-07-26T10:53:58;10.93;;;6.65;;
36253;SDS011;22291;52.250;21.228;2022-07-26T10:56:27;12.18;;;5.55;;
36253;SDS011;22291;52.250;21.228;2022-07-26T10:58:54;8.18;;;5.42;;
36253;SDS011;22291;52.250;21.228;2022-07-26T11:01:30;11.33;;;6.05;;
36253;SDS011;22291;52.250;21.228;2022-07-26T11:04:03;7.37;;;5.85;;
36253;SDS011;22291;52.250;21.228;2022-07-26T11:06:43;12.20;;;5.80;;
36253;SDS011;22291;52.250;21.228;2022-07-26T11:09:10;7.87;;;6.20;;
36253;SDS011;22291;52.250;21.228;2022-07-26T11:11:37;9.40;;;5.90;;
36253;SDS011;22291;52.250;21.228;2022-07-26T11:14:08;7.95;;;6.65;;
36253;SDS011;22291;52.250;21.228;2022-07-26T11:16:41;8.90;;;6.20;;
36253;SDS011;22291;52.250;21.228;2022-07-26T11:19:12;10.03;;;6.75;;
36253;SDS011;22291;52.250;21.228;2022-07-26T11:21:45;9.70;;;6.12;;
36253;SDS011;22291;52.250;21.228;2022-07-26T11:24:23;11.80;;;5.58;;
36253;SDS011;22291;52.250;21.228;2022-07-26T11:26:51;8.93;;;5.85;;
36253;SDS011;22291;52.250;21.228;2022-07-26T11:29:25;10.28;;;5.87;;
36253;SDS011;22291;52.250;21.228;2022-07-26T11:31:54;10.58;;;5.72;;
36253;SDS011;22291;52.250;21.228;2022-07-26T11:34:21;7.25;;;5.50;;
36253;SDS011;22291;52.250;21.228;2022-07-26T11:36:51;7.53;;;5.37;;
36253;SDS011;22291;52.250;21.228;2022-07-26T11:39:27;7.92;;;5.33;;
36253;SDS011;22291;52.250;21.228;2022-07-26T11:42:02;8.05;;;5.55;;
36253;SDS011;22291;52.250;21.228;2022-07-26T11:44:31;10.85;;;6.67;;
36253;SDS011;22291;52.250;21.228;2022-07-26T11:46:58;8.33;;;6.35;;
36253;SDS011;22291;52.250;21.228;2022-07-26T11:49:40;9.15;;;5.78;;
36253;SDS011;22291;52.250;21.228;2022-07-26T11:52:07;6.90;;;5.58;;
36253;SDS011;22291;52.250;21.228;2022-07-26T11:54:43;8.58;;;6.20;;
36253;SDS011;22291;52.250;21.228;2022-07-26T11:57:16;7.83;;;5.50;;
36253;SDS011;22291;52.250;21.228;2022-07-26T11:59:44;8.53;;;5.30;;
36253;SDS011;22291;52.250;21.228;2022-07-26T12:02:13;9.63;;;5.60;;
36253;SDS011;22291;52.250;21.228;2022-07-26T12:04:41;14.60;;;8.93;;
36253;SDS011;22291;52.250;21.228;2022-07-26T12:07:09;8.63;;;5.75;;
36253;SDS011;22291;52.250;21.228;2022-07-26T12:09:40;10.72;;;5.83;;
36253;SDS011;22291;52.250;21.228;2022-07-26T12:12:20;9.00;;;5.28;;
36253;SDS011;22291;52.250;21.228;2022-07-26T12:15:02;9.70;;;5.08;;
36253;SDS011;22291;52.250;21.228;2022-07-26T12:17:31;6.05;;;5.45;;
36253;SDS011;22291;52.250;21.228;2022-07-26T12:20:18;11.70;;;6.10;;
36253;SDS011;22291;52.250;21.228;2022-07-26T12:22:55;8.03;;;5.33;;
36253;SDS011;22291;52.250;21.228;2022-07-26T12:25:25;11.88;;;6.17;;
36253;SDS011;22291;52.250;21.228;2022-07-26T12:27:53;6.08;;;5.20;;
36253;SDS011;22291;52.250;21.228;2022-07-26T12:30:21;8.13;;;6.15;;
36253;SDS011;22291;52.250;21.228;2022-07-26T12:32:48;10.05;;;6.00;;
36253;SDS011;22291;52.250;21.228;2022-07-26T12:35:16;7.37;;;5.60;;
36253;SDS011;22291;52.250;21.228;2022-07-26T12:37:53;6.42;;;5.70;;
36253;SDS011;22291;52.250;21.228;2022-07-26T12:40:20;11.65;;;6.50;;
36253;SDS011;22291;52.250;21.228;2022-07-26T12:42:59;9.70;;;6.03;;
36253;SDS011;22291;52.250;21.228;2022-07-26T12:45:27;9.70;;;6.37;;
36253;SDS011;22291;52.250;21.228;2022-07-26T12:47:56;8.53;;;6.55;;
36253;SDS011;22291;52.250;21.228;2022-07-26T12:50:25;9.25;;;6.05;;
36253;SDS011;22291;52.250;21.228;2022-07-26T12:53:00;11.03;;;6.42;;
36253;SDS011;22291;52.250;21.228;2022-07-26T12:55:29;9.95;;;6.62;;
36253;SDS011;22291;52.250;21.228;2022-07-26T12:57:56;15.25;;;6.92;;
36253;SDS011;22291;52.250;21.228;2022-07-26T13:00:23;11.15;;;6.42;;
36253;SDS011;22291;52.250;21.228;2022-07-26T13:02:50;10.58;;;7.17;;
36253;SDS011;22291;52.250;21.228;2022-07-26T13:05:20;11.78;;;7.58;;
36253;SDS011;22291;52.250;21.228;2022-07-26T13:07:47;11.05;;;6.80;;
36253;SDS011;22291;52.250;21.228;2022-07-26T13:10:16;12.25;;;7.15;;
36253;SDS011;22291;52.250;21.228;2022-07-26T13:12:42;12.55;;;7.37;;
36253;SDS011;22291;52.250;21.228;2022-07-26T13:15:08;13.08;;;9.65;;
36253;SDS011;22291;52.250;21.228;2022-07-26T13:17:36;14.80;;;11.10;;
36253;SDS011;22291;52.250;21.228;2022-07-26T13:20:03;10.78;;;8.25;;
36253;SDS011;22291;52.250;21.228;2022-07-26T13:22:31;12.50;;;8.63;;
36253;SDS011;22291;52.250;21.228;2022-07-26T13:24:57;14.05;;;8.60;;
36253;SDS011;22291;52.250;21.228;2022-07-26T13:27:23;10.18;;;8.83;;
36253;SDS011;22291;52.250;21.228;2022-07-26T13:29:50;12.50;;;9.88;;
36253;SDS011;22291;52.250;21.228;2022-07-26T13:32:16;17.92;;;10.95;;
36253;SDS011;22291;52.250;21.228;2022-07-26T13:34:43;18.60;;;11.38;;
36253;SDS011;22291;52.250;21.228;2022-07-26T13:37:09;13.85;;;10.75;;
36253;SDS011;22291;52.250;21.228;2022-07-26T13:39:35;13.13;;;10.15;;
36253;SDS011;22291;52.250;21.228;2022-07-26T13:42:01;13.80;;;10.78;;
36253;SDS011;22291;52.250;21.228;2022-07-26T13:44:30;12.58;;;9.90;;
36253;SDS011;22291;52.250;21.228;2022-07-26T13:46:57;11.73;;;10.45;;
36253;SDS011;22291;52.250;21.228;2022-07-26T13:49:24;15.78;;;11.28;;
36253;SDS011;22291;52.250;21.228;2022-07-26T13:51:50;12.93;;;11.53;;
36253;SDS011;22291;52.250;21.228;2022-07-26T13:54:31;13.25;;;11.48;;
36253;SDS011;22291;52.250;21.228;2022-07-26T13:56:57;16.27;;;11.28;;
36253;SDS011;22291;52.250;21.228;2022-07-26T13:59:25;14.20;;;11.25;;
36253;SDS011;22291;52.250;21.228;2022-07-26T14:01:53;16.27;;;12.68;;
36253;SDS011;22291;52.250;21.228;2022-07-26T14:04:20;14.80;;;11.85;;
36253;SDS011;22291;52.250;21.228;2022-07-26T14:06:48;17.62;;;13.13;;
36253;SDS011;22291;52.250;21.228;2022-07-26T14:09:15;16.10;;;13.05;;
36253;SDS011;22291;52.250;21.228;2022-07-26T14:11:44;15.05;;;12.82;;
36253;SDS011;22291;52.250;21.228;2022-07-26T14:14:11;16.95;;;12.58;;
36253;SDS011;22291;52.250;21.228;2022-07-26T14:16:38;20.95;;;16.07;;
36253;SDS011;22291;52.250;21.228;2022-07-26T14:19:05;15.03;;;13.15;;
36253;SDS011;22291;52.250;21.228;2022-07-26T14:21:33;17.75;;;13.85;;
36253;SDS011;22291;52.250;21.228;2022-07-26T14:24:00;22.82;;;14.68;;
36253;SDS011;22291;52.250;21.228;2022-07-26T14:26:27;15.53;;;13.83;;
36253;SDS011;22291;52.250;21.228;2022-07-26T14:28:54;16.35;;;13.80;;
36253;SDS011;22291;52.250;21.228;2022-07-26T14:31:22;19.77;;;15.58;;
36253;SDS011;22291;52.250;21.228;2022-07-26T14:33:51;17.60;;;14.55;;
36253;SDS011;22291;52.250;21.228;2022-07-26T14:36:17;22.60;;;14.18;;
36253;SDS011;22291;52.250;21.228;2022-07-26T14:38:44;21.80;;;16.02;;
36253;SDS011;22291;52.250;21.228;2022-07-26T14:41:12;19.75;;;16.17;;
36253;SDS011;22291;52.250;21.228;2022-07-26T14:43:38;19.12;;;16.05;;
36253;SDS011;22291;52.250;21.228;2022-07-26T14:46:07;16.10;;;14.28;;
36253;SDS011;22291;52.250;21.228;2022-07-26T14:48:34;15.83;;;14.00;;
36253;SDS011;22291;52.250;21.228;2022-07-26T14:51:01;18.92;;;14.20;;
36253;SDS011;22291;52.250;21.228;2022-07-26T14:53:29;15.85;;;14.07;;
36253;SDS011;22291;52.250;21.228;2022-07-26T14:55:56;17.75;;;14.13;;
36253;SDS011;22291;52.250;21.228;2022-07-26T14:58:23;14.28;;;12.82;;
36253;SDS011;22291;52.250;21.228;2022-07-26T15:00:50;17.32;;;13.60;;
36253;SDS011;22291;52.250;21.228;2022-07-26T15:03:17;18.57;;;12.85;;
36253;SDS011;22291;52.250;21.228;2022-07-26T15:05:44;15.45;;;13.50;;